createdAt,value
2023-05-11T00:04:07.938Z,977.51
2023-05-11T00:16:08.384Z,977.48
2023-05-11T00:28:08.772Z,977.45
2023-05-11T00:40:09.225Z,977.39
2023-05-11T00:52:09.672Z,977.40
2023-05-11T01:04:10.142Z,977.35
2023-05-11T01:16:10.680Z,977.35
2023-05-11T01:28:11.052Z,977.38
2023-05-11T01:40:11.492Z,977.35
2023-05-11T01:52:11.980Z,977.36
2023-05-11T02:04:12.419Z,977.40
2023-05-11T02:16:12.905Z,977.37
2023-05-11T02:28:13.294Z,977.40
2023-05-11T02:40:13.766Z,977.43
2023-05-11T02:52:14.220Z,977.40
2023-05-11T03:04:14.694Z,977.29
2023-05-11T03:16:15.178Z,977.37
2023-05-11T03:28:15.599Z,977.36
2023-05-11T03:40:16.121Z,977.31
2023-05-11T03:52:16.481Z,977.30
2023-05-11T04:04:16.959Z,977.29
2023-05-11T04:16:17.440Z,977.31
2023-05-11T04:28:17.858Z,977.35
2023-05-11T04:40:18.528Z,977.39
2023-05-11T04:52:18.736Z,977.49
2023-05-11T05:04:19.433Z,977.56
2023-05-11T05:16:19.652Z,977.45
2023-05-11T05:28:20.117Z,977.58
2023-05-11T05:40:20.894Z,977.57
2023-05-11T05:52:21.019Z,977.60
2023-05-11T06:04:21.524Z,977.65
2023-05-11T06:16:21.984Z,977.59
2023-05-11T06:28:22.357Z,977.73
2023-05-11T06:40:22.830Z,977.73
2023-05-11T06:52:23.238Z,977.75
2023-05-11T07:04:23.840Z,977.68
2023-05-11T07:16:24.231Z,977.56
2023-05-11T07:28:24.691Z,977.55
2023-05-11T07:40:25.148Z,977.50
2023-05-11T07:52:25.587Z,977.55
2023-05-11T08:04:26.004Z,977.61
2023-05-11T08:16:26.529Z,977.50
2023-05-11T08:28:26.952Z,977.40
2023-05-11T08:40:27.376Z,977.36
2023-05-11T08:52:27.829Z,977.44
2023-05-11T09:04:28.438Z,977.37
2023-05-11T09:16:36.740Z,977.37
2023-05-11T09:52:30.147Z,977.12
2023-05-11T10:04:30.687Z,976.83
2023-05-11T10:16:31.105Z,976.87
2023-05-11T10:28:31.476Z,976.68
2023-05-11T10:40:31.919Z,976.57
2023-05-11T10:52:32.379Z,976.51
2023-05-11T11:04:32.819Z,976.36
2023-05-11T11:16:33.301Z,976.33
2023-05-11T11:28:33.773Z,976.36
2023-05-11T11:40:43.233Z,976.26
2023-05-11T11:52:34.624Z,976.29
2023-05-11T12:04:35.119Z,976.28
2023-05-11T12:16:35.652Z,976.25
2023-05-11T12:28:36.003Z,976.11
2023-05-11T12:40:36.458Z,976.08
2023-05-11T12:52:36.903Z,976.05
2023-05-11T13:04:37.410Z,975.95
2023-05-11T13:16:37.890Z,975.91
2023-05-11T13:28:38.264Z,975.85
2023-05-11T13:40:38.743Z,975.72
2023-05-11T13:52:39.201Z,975.68
2023-05-11T14:04:39.649Z,975.57
2023-05-11T14:16:40.091Z,975.51
2023-05-11T14:28:40.552Z,975.34
2023-05-11T14:40:41.028Z,975.38
2023-05-11T14:52:41.488Z,975.45
2023-05-11T15:04:41.898Z,975.63
2023-05-11T15:16:42.489Z,975.86
2023-05-11T15:28:42.873Z,975.93
2023-05-11T15:40:43.262Z,976.08
2023-05-11T15:52:43.725Z,976.40
2023-05-11T16:04:44.186Z,976.45
2023-05-11T16:16:44.695Z,976.65
2023-05-11T16:28:45.084Z,976.79
2023-05-11T16:40:45.521Z,976.89
2023-05-11T16:52:45.987Z,976.84
2023-05-11T17:04:46.510Z,977.04
2023-05-11T17:16:46.933Z,977.09
2023-05-11T17:28:47.382Z,977.12
2023-05-11T17:40:47.824Z,977.17
2023-05-11T17:52:50.781Z,977.17
2023-05-11T18:04:48.720Z,977.36
2023-05-11T18:16:49.164Z,977.41
2023-05-11T18:28:49.614Z,977.56
2023-05-11T18:40:50.121Z,977.67
2023-05-11T18:52:50.534Z,977.53
2023-05-11T19:04:50.986Z,977.69
2023-05-11T19:16:51.478Z,977.86
2023-05-11T19:28:51.922Z,977.67
2023-05-11T19:40:52.778Z,977.77
2023-05-11T19:52:52.791Z,977.76
2023-05-11T20:04:53.244Z,977.92
2023-05-11T20:16:53.721Z,977.83
2023-05-11T20:28:54.162Z,977.88
2023-05-11T20:40:54.611Z,977.83
2023-05-11T20:52:55.050Z,977.87
2023-05-11T21:04:55.541Z,977.89
2023-05-11T21:16:56.006Z,977.89
2023-05-11T21:28:56.427Z,977.81
2023-05-11T21:40:56.890Z,977.85
2023-05-11T21:52:57.333Z,977.82
2023-05-11T22:04:57.778Z,977.89
2023-05-11T22:16:58.231Z,977.87
2023-05-11T22:28:58.692Z,977.94
2023-05-11T22:40:59.142Z,978.00
2023-05-11T22:52:59.592Z,977.86
2023-05-11T23:05:00.030Z,977.93
2023-05-11T23:17:00.525Z,977.76
2023-05-11T23:29:01.023Z,977.75
2023-05-11T23:41:01.424Z,977.70
2023-05-11T23:53:01.887Z,977.53
